createdAt,value
2023-02-15T00:03:22.794Z,33.00
2023-02-15T00:07:49.259Z,34.40
2023-02-15T00:11:50.664Z,35.80
2023-02-15T00:15:52.112Z,32.20
2023-02-15T00:19:53.658Z,35.00
2023-02-15T00:23:55.002Z,35.70
2023-02-15T00:27:56.352Z,34.20
2023-02-15T00:31:57.698Z,33.90
2023-02-15T00:36:00.703Z,36.70
2023-02-15T00:40:02.528Z,32.20
2023-02-15T00:44:05.135Z,33.70
2023-02-15T00:48:32.602Z,33.10
2023-02-15T00:52:34.132Z,32.10
2023-02-15T00:56:35.773Z,38.10
2023-02-15T01:00:51.307Z,31.90
2023-02-15T01:04:52.976Z,31.50
2023-02-15T01:09:11.127Z,30.10
2023-02-15T01:13:12.426Z,30.40
2023-02-15T01:17:13.825Z,31.20
2023-02-15T01:21:21.279Z,27.20
2023-02-15T01:25:24.264Z,32.70
2023-02-15T01:29:25.690Z,29.60
2023-02-15T01:33:27.421Z,31.30
2023-02-15T01:37:31.699Z,32.80
2023-02-15T01:41:33.237Z,31.70
2023-02-15T01:45:39.357Z,31.00
2023-02-15T01:49:42.644Z,31.60
2023-02-15T01:57:53.728Z,35.20
2023-02-15T02:01:58.716Z,30.50
2023-02-15T02:06:00.504Z,29.00
2023-02-15T02:11:18.051Z,30.00
2023-02-15T02:15:24.164Z,28.20
2023-02-15T02:19:50.296Z,30.40
2023-02-15T02:24:09.365Z,33.30
2023-02-15T02:28:52.931Z,36.50
2023-02-15T02:33:35.377Z,33.30
2023-02-15T02:37:48.915Z,28.60
2023-02-15T02:42:18.106Z,32.30
2023-02-15T02:46:26.754Z,34.20
2023-02-15T02:50:30.066Z,36.20
2023-02-15T02:54:34.989Z,37.90
2023-02-15T03:18:34.130Z,38.20
2023-02-15T03:37:32.381Z,34.10
2023-02-15T03:41:57.200Z,33.00
2023-02-15T03:46:08.402Z,32.80
2023-02-15T03:55:23.992Z,37.10
2023-02-15T04:04:26.843Z,32.00
2023-02-15T04:08:46.826Z,29.30
2023-02-15T04:13:21.731Z,33.30
2023-02-15T04:17:23.167Z,35.10
2023-02-15T04:21:49.672Z,34.30
2023-02-15T04:25:51.133Z,31.20
2023-02-15T04:29:52.652Z,36.40
2023-02-15T04:43:33.814Z,36.00
2023-02-15T04:47:43.845Z,41.50
2023-02-15T04:51:45.742Z,103.20
2023-02-15T04:55:52.353Z,55.20
2023-02-15T04:59:54.142Z,42.70
2023-02-15T05:03:56.169Z,34.90
2023-02-15T05:07:58.184Z,39.90
2023-02-15T05:12:00.413Z,39.80
2023-02-15T05:16:03.444Z,31.00
2023-02-15T05:30:02.853Z,36.50
2023-02-15T05:34:49.519Z,54.90
2023-02-15T05:39:01.840Z,56.60
2023-02-15T05:43:04.256Z,53.40
2023-02-15T05:47:40.993Z,53.70
2023-02-15T05:51:43.752Z,48.40
2023-02-15T05:55:50.595Z,50.60
2023-02-15T06:09:27.856Z,40.20
2023-02-15T06:13:31.086Z,35.90
2023-02-15T06:17:32.497Z,35.40
2023-02-15T06:21:44.341Z,41.20
2023-02-15T06:25:46.611Z,77.30
2023-02-15T06:29:48.025Z,103.60
2023-02-15T06:33:50.711Z,98.70
2023-02-15T06:37:52.119Z,58.90
2023-02-15T06:42:44.271Z,59.10
2023-02-15T06:46:45.697Z,51.00
2023-02-15T06:50:55.358Z,44.20
2023-02-15T06:54:56.818Z,34.00
2023-02-15T07:00:03.118Z,32.80
2023-02-15T07:04:04.733Z,49.60
2023-02-15T07:09:11.871Z,40.30
2023-02-15T07:13:13.241Z,33.80
2023-02-15T07:17:40.226Z,41.20
2023-02-15T07:21:41.745Z,38.80
2023-02-15T07:25:43.186Z,43.40
2023-02-15T07:29:44.721Z,33.80
2023-02-15T07:33:59.237Z,40.10
2023-02-15T07:47:41.420Z,103.00
2023-02-15T08:21:05.451Z,48.60
2023-02-15T08:29:55.597Z,45.10
2023-02-15T08:34:00.929Z,41.00
2023-02-15T08:38:03.688Z,53.90
2023-02-15T08:42:11.647Z,43.40
2023-02-15T08:46:16.613Z,45.10
2023-02-15T08:55:59.633Z,37.60
2023-02-15T09:22:07.418Z,48.60
2023-02-15T09:26:13.111Z,48.30
2023-02-15T09:30:15.177Z,71.00
2023-02-15T09:34:18.790Z,47.90
2023-02-15T09:38:20.549Z,41.40
2023-02-15T09:47:57.581Z,50.00
2023-02-15T09:52:08.041Z,48.90
2023-02-15T09:57:16.294Z,41.80
2023-02-15T10:06:32.770Z,46.20
2023-02-15T10:25:13.130Z,47.50
2023-02-15T10:30:21.236Z,39.50
2023-02-15T11:14:48.343Z,40.20
2023-02-15T11:19:09.547Z,40.70
2023-02-15T11:23:16.729Z,39.00
2023-02-15T11:27:26.759Z,43.40
2023-02-15T11:31:48.499Z,38.20
2023-02-15T11:45:35.823Z,36.80
2023-02-15T11:49:41.962Z,39.40
2023-02-15T11:53:46.079Z,36.20
2023-02-15T11:58:41.473Z,34.10
2023-02-15T12:02:55.903Z,35.70
2023-02-15T12:07:22.862Z,43.10
2023-02-15T12:11:32.420Z,38.90
2023-02-15T12:15:36.853Z,37.40
2023-02-15T12:19:40.849Z,33.60
2023-02-15T12:24:39.954Z,35.60
2023-02-15T12:28:44.766Z,36.20
2023-02-15T12:33:00.096Z,35.90
2023-02-15T12:37:09.717Z,36.80
2023-02-15T12:41:26.210Z,38.40
2023-02-15T12:45:30.441Z,37.20
2023-02-15T12:49:38.985Z,35.60
2023-02-15T12:53:43.523Z,37.00
2023-02-15T12:58:22.518Z,36.70
2023-02-15T13:02:28.759Z,39.30
2023-02-15T13:16:38.435Z,34.20
2023-02-15T13:20:42.164Z,37.50
2023-02-15T13:25:26.220Z,36.30
2023-02-15T13:29:36.176Z,32.40
2023-02-15T13:33:38.705Z,36.60
2023-02-15T13:38:02.126Z,37.00
2023-02-15T14:09:36.254Z,33.10
2023-02-15T14:28:47.122Z,32.20
2023-02-15T14:32:53.354Z,43.00
2023-02-15T14:36:56.502Z,55.10
2023-02-15T14:46:36.370Z,57.00
2023-02-15T14:51:08.340Z,36.40
2023-02-15T14:55:10.654Z,34.60
2023-02-15T14:59:39.223Z,31.00
2023-02-15T15:03:56.742Z,37.10
2023-02-15T15:08:00.938Z,37.80
2023-02-15T15:12:37.229Z,35.60
2023-02-15T15:16:38.543Z,38.30
2023-02-15T15:20:54.864Z,57.70
2023-02-15T15:25:23.758Z,61.20
2023-02-15T15:29:41.133Z,42.60
2023-02-15T15:34:10.184Z,42.50
2023-02-15T15:38:32.349Z,52.30
2023-02-15T15:42:42.992Z,49.80
2023-02-15T15:47:25.939Z,60.20
2023-02-15T15:51:31.832Z,49.50
2023-02-15T15:55:35.012Z,43.20
2023-02-15T15:59:36.489Z,43.60
2023-02-15T16:03:37.924Z,36.80
2023-02-15T16:07:41.660Z,36.50
2023-02-15T16:12:14.362Z,34.90
2023-02-15T16:16:22.798Z,38.30
2023-02-15T16:20:57.722Z,32.10
2023-02-15T16:25:05.485Z,36.10
2023-02-15T16:29:18.128Z,29.10
2023-02-15T16:33:20.462Z,32.10
2023-02-15T16:37:26.386Z,32.40
2023-02-15T16:47:41.540Z,35.20
2023-02-15T16:51:47.471Z,37.30
2023-02-15T16:55:53.427Z,37.80
2023-02-15T17:00:01.405Z,40.10
2023-02-15T17:04:30.521Z,39.80
2023-02-15T17:08:33.167Z,52.30
2023-02-15T17:12:45.405Z,114.70
2023-02-15T17:22:07.361Z,81.20
2023-02-15T17:26:25.098Z,82.00
2023-02-15T17:30:38.176Z,62.50
2023-02-15T17:35:25.051Z,54.50
2023-02-15T17:39:26.461Z,59.70
2023-02-15T17:43:27.932Z,54.50
2023-02-15T17:47:30.817Z,54.80
2023-02-15T17:51:35.333Z,62.10
2023-02-15T17:55:44.459Z,75.00
2023-02-15T18:00:04.600Z,58.80
2023-02-15T18:04:31.788Z,63.50
2023-02-15T18:12:53.282Z,65.30
2023-02-15T18:16:55.110Z,79.40
2023-02-15T18:20:56.577Z,68.00
2023-02-15T18:24:58.772Z,67.30
2023-02-15T18:29:02.736Z,58.20
2023-02-15T18:33:04.177Z,66.70
2023-02-15T18:37:10.590Z,78.30
2023-02-15T18:41:18.196Z,89.00
2023-02-15T18:45:53.335Z,83.70
2023-02-15T18:49:54.754Z,85.10
2023-02-15T18:53:56.891Z,61.50
2023-02-15T18:57:58.936Z,51.90
2023-02-15T19:02:50.543Z,64.60
2023-02-15T19:06:53.651Z,53.70
2023-02-15T19:10:55.505Z,49.10
2023-02-15T19:14:56.939Z,49.50
2023-02-15T19:19:07.467Z,50.90
2023-02-15T19:23:33.114Z,46.30
2023-02-15T19:27:35.286Z,47.60
2023-02-15T19:31:36.786Z,60.70
2023-02-15T19:35:44.011Z,51.00
2023-02-15T19:39:45.473Z,46.90
2023-02-15T19:43:52.630Z,47.20
2023-02-15T19:47:54.571Z,42.90
2023-02-15T19:51:59.231Z,45.90
2023-02-15T19:56:00.877Z,47.50
2023-02-15T20:00:22.129Z,39.00
2023-02-15T20:04:25.305Z,33.70
2023-02-15T20:08:28.881Z,35.30
2023-02-15T20:12:30.399Z,40.90
2023-02-15T20:17:00.157Z,40.90
2023-02-15T20:21:03.084Z,38.10
2023-02-15T20:25:05.347Z,34.60
2023-02-15T20:29:12.311Z,33.00
2023-02-15T20:33:15.257Z,35.30
2023-02-15T20:38:22.471Z,40.20
2023-02-15T20:42:23.871Z,36.90
2023-02-15T20:46:25.595Z,34.40
2023-02-15T20:50:53.652Z,30.10
2023-02-15T20:54:55.151Z,31.90
2023-02-15T20:58:56.572Z,34.20
2023-02-15T21:03:00.335Z,36.50
2023-02-15T21:07:30.357Z,31.00
2023-02-15T21:11:31.779Z,34.70
2023-02-15T21:15:35.976Z,34.60
2023-02-15T21:19:40.690Z,35.10
2023-02-15T21:23:51.087Z,36.10
2023-02-15T21:27:53.030Z,30.40
2023-02-15T21:32:26.756Z,30.90
2023-02-15T21:36:28.268Z,29.30
2023-02-15T21:40:31.650Z,32.80
2023-02-15T21:44:53.906Z,33.00
2023-02-15T21:48:55.387Z,34.00
2023-02-15T21:53:34.382Z,36.30
2023-02-15T21:57:35.778Z,36.40
2023-02-15T22:01:47.059Z,43.80
2023-02-15T22:05:48.496Z,39.20
2023-02-15T22:09:49.965Z,41.70
2023-02-15T22:13:51.417Z,39.10
2023-02-15T22:17:57.059Z,37.70
2023-02-15T22:21:58.390Z,38.70
2023-02-15T22:26:27.302Z,32.70
2023-02-15T22:30:33.178Z,34.10
2023-02-15T22:34:34.652Z,32.50
2023-02-15T22:39:02.020Z,32.80
2023-02-15T22:43:05.022Z,29.10
2023-02-15T22:47:20.234Z,28.10
2023-02-15T22:51:23.921Z,29.30
2023-02-15T22:55:32.999Z,35.30
2023-02-15T22:59:34.458Z,35.20
2023-02-15T23:03:36.975Z,28.60
2023-02-15T23:07:38.379Z,29.30
2023-02-15T23:11:46.437Z,29.50
2023-02-15T23:16:12.061Z,32.30
2023-02-15T23:20:14.577Z,34.90
2023-02-15T23:24:42.869Z,35.30
2023-02-15T23:28:45.121Z,36.50
2023-02-15T23:33:58.991Z,34.30
2023-02-15T23:38:00.408Z,37.00
2023-02-15T23:42:25.091Z,38.50
2023-02-15T23:46:44.902Z,36.90
2023-02-15T23:50:46.351Z,42.20
2023-02-15T23:55:15.122Z,38.50
2023-02-15T23:59:20.653Z,37.50
